sensor_id;sensor_type;location;lat;lon;timestamp;pressure;altitude;pressure_sealevel;temperature
18474;BMP180;30265;52.408;13.500;2023-06-10T00:05:10;101923.00;;;21.20
18474;BMP180;30265;52.408;13.500;2023-06-10T00:15:33;101918.00;;;21.10
18474;BMP180;30265;52.408;13.500;2023-06-10T00:25:57;101914.00;;;21.00
18474;BMP180;30265;52.408;13.500;2023-06-10T00:36:20;101899.00;;;20.90
18474;BMP180;30265;52.408;13.500;2023-06-10T00:46:43;101909.00;;;20.80
18474;BMP180;30265;52.408;13.500;2023-06-10T00:57:06;101922.00;;;20.70
18474;BMP180;30265;52.408;13.500;2023-06-10T01:07:34;101926.00;;;20.70
18474;BMP180;30265;52.408;13.500;2023-06-10T01:17:59;101938.00;;;20.60
18474;BMP180;30265;52.408;13.500;2023-06-10T01:28:28;101938.00;;;20.50
18474;BMP180;30265;52.408;13.500;2023-06-10T01:38:53;101949.00;;;20.40
18474;BMP180;30265;52.408;13.500;2023-06-10T01:49:16;101945.00;;;20.40
18474;BMP180;30265;52.408;13.500;2023-06-10T01:59:38;101940.00;;;20.40
18474;BMP180;30265;52.408;13.500;2023-06-10T02:10:01;101940.00;;;20.30
18474;BMP180;30265;52.408;13.500;2023-06-10T02:20:23;101939.00;;;20.20
18474;BMP180;30265;52.408;13.500;2023-06-10T02:30:45;101958.00;;;20.10
18474;BMP180;30265;52.408;13.500;2023-06-10T02:41:08;101950.00;;;20.10
18474;BMP180;30265;52.408;13.500;2023-06-10T02:51:31;101942.00;;;20.00
18474;BMP180;30265;52.408;13.500;2023-06-10T03:01:55;101966.00;;;20.00
18474;BMP180;30265;52.408;13.500;2023-06-10T03:12:20;101958.00;;;19.90
18474;BMP180;30265;52.408;13.500;2023-06-10T03:22:42;101951.00;;;19.90
18474;BMP180;30265;52.408;13.500;2023-06-10T03:33:05;101963.00;;;19.90
18474;BMP180;30265;52.408;13.500;2023-06-10T03:43:27;101956.00;;;20.00
18474;BMP180;30265;52.408;13.500;2023-06-10T03:53:50;101963.00;;;20.00
18474;BMP180;30265;52.408;13.500;2023-06-10T04:04:14;101973.00;;;20.10
18474;BMP180;30265;52.408;13.500;2023-06-10T04:14:38;101974.00;;;20.10
18474;BMP180;30265;52.408;13.500;2023-06-10T04:25:04;101974.00;;;20.40
18474;BMP180;30265;52.408;13.500;2023-06-10T04:35:28;101971.00;;;21.10
18474;BMP180;30265;52.408;13.500;2023-06-10T04:45:53;101990.00;;;21.10
18474;BMP180;30265;52.408;13.500;2023-06-10T04:56:17;101973.00;;;21.70
18474;BMP180;30265;52.408;13.500;2023-06-10T05:06:39;101972.00;;;22.00
18474;BMP180;30265;52.408;13.500;2023-06-10T05:17:02;101962.00;;;22.90
18474;BMP180;30265;52.408;13.500;2023-06-10T05:27:25;101963.00;;;22.60
18474;BMP180;30265;52.408;13.500;2023-06-10T05:37:48;101944.00;;;24.20
18474;BMP180;30265;52.408;13.500;2023-06-10T05:48:10;101916.00;;;25.70
18474;BMP180;30265;52.408;13.500;2023-06-10T05:58:33;101915.00;;;26.50
18474;BMP180;30265;52.408;13.500;2023-06-10T06:08:55;101941.00;;;25.90
18474;BMP180;30265;52.408;13.500;2023-06-10T06:19:18;101941.00;;;26.20
18474;BMP180;30265;52.408;13.500;2023-06-10T06:29:40;101950.00;;;25.40
18474;BMP180;30265;52.408;13.500;2023-06-10T06:40:04;101950.00;;;26.60
18474;BMP180;30265;52.408;13.500;2023-06-10T06:50:25;101967.00;;;26.30
18474;BMP180;30265;52.408;13.500;2023-06-10T07:00:48;101943.00;;;27.30
18474;BMP180;30265;52.408;13.500;2023-06-10T07:11:10;101961.00;;;27.70
18474;BMP180;30265;52.408;13.500;2023-06-10T07:21:33;101965.00;;;27.80
18474;BMP180;30265;52.408;13.500;2023-06-10T07:31:58;101964.00;;;27.30
18474;BMP180;30265;52.408;13.500;2023-06-10T07:42:21;101957.00;;;28.60
18474;BMP180;30265;52.408;13.500;2023-06-10T07:52:42;101956.00;;;28.70
18474;BMP180;30265;52.408;13.500;2023-06-10T08:03:06;101956.00;;;28.80
18474;BMP180;30265;52.408;13.500;2023-06-10T08:13:28;101942.00;;;29.90
18474;BMP180;30265;52.408;13.500;2023-06-10T08:23:54;101971.00;;;29.20
18474;BMP180;30265;52.408;13.500;2023-06-10T08:34:15;101967.00;;;29.20
18474;BMP180;30265;52.408;13.500;2023-06-10T08:44:39;101961.00;;;30.30
18474;BMP180;30265;52.408;13.500;2023-06-10T08:55:04;101958.00;;;31.10
18474;BMP180;30265;52.408;13.500;2023-06-10T09:05:54;101952.00;;;30.90
18474;BMP180;30265;52.408;13.500;2023-06-10T09:16:18;101940.00;;;31.90
18474;BMP180;30265;52.408;13.500;2023-06-10T09:27:02;101949.00;;;31.60
18474;BMP180;30265;52.408;13.500;2023-06-10T09:37:28;101921.00;;;33.50
18474;BMP180;30265;52.408;13.500;2023-06-10T09:47:55;101924.00;;;33.20
18474;BMP180;30265;52.408;13.500;2023-06-10T09:58:18;101929.00;;;33.00
18474;BMP180;30265;52.408;13.500;2023-06-10T10:08:47;101935.00;;;32.60
18474;BMP180;30265;52.408;13.500;2023-06-10T10:19:14;101942.00;;;33.10
18474;BMP180;30265;52.408;13.500;2023-06-10T10:29:45;101957.00;;;31.20
18474;BMP180;30265;52.408;13.500;2023-06-10T10:40:08;101950.00;;;31.30
18474;BMP180;30265;52.408;13.500;2023-06-10T10:50:33;101915.00;;;33.20
18474;BMP180;30265;52.408;13.500;2023-06-10T11:00:54;101904.00;;;33.00
18474;BMP180;30265;52.408;13.500;2023-06-10T11:11:23;101888.00;;;33.80
18474;BMP180;30265;52.408;13.500;2023-06-10T11:21:58;101898.00;;;33.80
18474;BMP180;30265;52.408;13.500;2023-06-10T11:32:28;101899.00;;;33.50
18474;BMP180;30265;52.408;13.500;2023-06-10T11:42:51;101883.00;;;34.70
18474;BMP180;30265;52.408;13.500;2023-06-10T11:53:14;101890.00;;;32.90
18474;BMP180;30265;52.408;13.500;2023-06-10T12:03:37;101891.00;;;34.00
18474;BMP180;30265;52.408;13.500;2023-06-10T12:14:01;101890.00;;;33.50
18474;BMP180;30265;52.408;13.500;2023-06-10T12:24:24;101883.00;;;33.80
18474;BMP180;30265;52.408;13.500;2023-06-10T12:34:47;101873.00;;;33.20
18474;BMP180;30265;52.408;13.500;2023-06-10T12:45:14;101863.00;;;33.50
18474;BMP180;30265;52.408;13.500;2023-06-10T12:55:37;101832.00;;;35.00
18474;BMP180;30265;52.408;13.500;2023-06-10T13:05:59;101816.00;;;35.50
18474;BMP180;30265;52.408;13.500;2023-06-10T13:16:23;101798.00;;;35.50
18474;BMP180;30265;52.408;13.500;2023-06-10T13:26:46;101803.00;;;35.70
18474;BMP180;30265;52.408;13.500;2023-06-10T13:37:09;101815.00;;;34.20
18474;BMP180;30265;52.408;13.500;2023-06-10T13:47:33;101789.00;;;35.30
18474;BMP180;30265;52.408;13.500;2023-06-10T13:57:57;101792.00;;;35.40
18474;BMP180;30265;52.408;13.500;2023-06-10T14:08:19;101797.00;;;34.90
18474;BMP180;30265;52.408;13.500;2023-06-10T14:18:43;101791.00;;;34.70
18474;BMP180;30265;52.408;13.500;2023-06-10T14:29:04;101790.00;;;35.50
18474;BMP180;30265;52.408;13.500;2023-06-10T14:39:28;101800.00;;;34.10
18474;BMP180;30265;52.408;13.500;2023-06-10T14:49:51;101796.00;;;34.70
18474;BMP180;30265;52.408;13.500;2023-06-10T15:00:15;101792.00;;;34.00
18474;BMP180;30265;52.408;13.500;2023-06-10T15:10:40;101791.00;;;34.90
18474;BMP180;30265;52.408;13.500;2023-06-10T15:21:03;101782.00;;;35.00
18474;BMP180;30265;52.408;13.500;2023-06-10T15:31:24;101799.00;;;35.30
18474;BMP180;30265;52.408;13.500;2023-06-10T15:41:48;101797.00;;;35.10
18474;BMP180;30265;52.408;13.500;2023-06-10T15:52:09;101800.00;;;35.10
18474;BMP180;30265;52.408;13.500;2023-06-10T16:02:33;101814.00;;;34.50
18474;BMP180;30265;52.408;13.500;2023-06-10T16:12:56;101813.00;;;34.80
18474;BMP180;30265;52.408;13.500;2023-06-10T16:23:19;101820.00;;;34.40
18474;BMP180;30265;52.408;13.500;2023-06-10T16:33:41;101828.00;;;34.50
18474;BMP180;30265;52.408;13.500;2023-06-10T16:44:05;101833.00;;;34.20
18474;BMP180;30265;52.408;13.500;2023-06-10T16:54:27;101830.00;;;34.20
18474;BMP180;30265;52.408;13.500;2023-06-10T17:04:50;101830.00;;;34.00
18474;BMP180;30265;52.408;13.500;2023-06-10T17:15:12;101840.00;;;33.80
18474;BMP180;30265;52.408;13.500;2023-06-10T17:25:35;101842.00;;;33.80
18474;BMP180;30265;52.408;13.500;2023-06-10T17:35:57;101861.00;;;33.50
18474;BMP180;30265;52.408;13.500;2023-06-10T17:46:20;101878.00;;;33.20
18474;BMP180;30265;52.408;13.500;2023-06-10T17:56:42;101885.00;;;33.20
18474;BMP180;30265;52.408;13.500;2023-06-10T18:07:05;101892.00;;;33.00
18474;BMP180;30265;52.408;13.500;2023-06-10T18:17:27;101903.00;;;32.70
18474;BMP180;30265;52.408;13.500;2023-06-10T18:27:50;101907.00;;;32.50
18474;BMP180;30265;52.408;13.500;2023-06-10T18:38:11;101928.00;;;31.80
18474;BMP180;30265;52.408;13.500;2023-06-10T18:48:34;101953.00;;;31.40
18474;BMP180;30265;52.408;13.500;2023-06-10T18:58:56;101967.00;;;30.90
18474;BMP180;30265;52.408;13.500;2023-06-10T19:09:19;101977.00;;;30.60
18474;BMP180;30265;52.408;13.500;2023-06-10T19:19:42;101991.00;;;30.40
18474;BMP180;30265;52.408;13.500;2023-06-10T19:30:06;102011.00;;;30.10
18474;BMP180;30265;52.408;13.500;2023-06-10T19:40:28;102023.00;;;29.80
18474;BMP180;30265;52.408;13.500;2023-06-10T19:50:51;102027.00;;;29.70
18474;BMP180;30265;52.408;13.500;2023-06-10T20:01:13;102040.00;;;29.50
18474;BMP180;30265;52.408;13.500;2023-06-10T20:11:38;102050.00;;;29.40
18474;BMP180;30265;52.408;13.500;2023-06-10T20:21:59;102067.00;;;29.20
18474;BMP180;30265;52.408;13.500;2023-06-10T20:32:26;102084.00;;;28.80
18474;BMP180;30265;52.408;13.500;2023-06-10T20:42:48;102090.00;;;28.50
18474;BMP180;30265;52.408;13.500;2023-06-10T20:53:11;102110.00;;;28.30
18474;BMP180;30265;52.408;13.500;2023-06-10T21:03:33;102110.00;;;28.10
18474;BMP180;30265;52.408;13.500;2023-06-10T21:13:56;102107.00;;;28.10
18474;BMP180;30265;52.408;13.500;2023-06-10T21:24:17;102131.00;;;27.80
18474;BMP180;30265;52.408;13.500;2023-06-10T21:34:40;102142.00;;;27.60
18474;BMP180;30265;52.408;13.500;2023-06-10T21:45:03;102157.00;;;27.50
18474;BMP180;30265;52.408;13.500;2023-06-10T21:55:26;102176.00;;;27.10
18474;BMP180;30265;52.408;13.500;2023-06-10T22:05:48;102170.00;;;26.90
18474;BMP180;30265;52.408;13.500;2023-06-10T22:16:11;102177.00;;;26.60
18474;BMP180;30265;52.408;13.500;2023-06-10T22:26:33;102186.00;;;26.40
18474;BMP180;30265;52.408;13.500;2023-06-10T22:37:13;102182.00;;;26.00
18474;BMP180;30265;52.408;13.500;2023-06-10T22:47:36;102193.00;;;25.60
18474;BMP180;30265;52.408;13.500;2023-06-10T22:57:59;102193.00;;;25.30
18474;BMP180;30265;52.408;13.500;2023-06-10T23:08:21;102194.00;;;25.10
18474;BMP180;30265;52.408;13.500;2023-06-10T23:18:45;102200.00;;;24.80
18474;BMP180;30265;52.408;13.500;2023-06-10T23:29:07;102216.00;;;24.60
18474;BMP180;30265;52.408;13.500;2023-06-10T23:39:30;102218.00;;;24.40
18474;BMP180;30265;52.408;13.500;2023-06-10T23:49:53;102238.00;;;24.10
